Merritt, North Carolina
Current Conditions -  °F | °C
As of 11:56 PM on Thursday 30 Oct 2014 (Local Time) from KNBT Reporting Station
Clear Clear  
Wind Chill: 62°   Ceiling: Unl
Heat Index: 62°   Visibility: 9mi
Dew Point: 49°   Wind: 13mph
Humidity: 62%   Direction: 30°NNE
Pressure: 29.95"   Gusts: NA
Location:  35.1°N, 76.71°W
Report Text: KNBT 310356Z AUTO 03011KT 9SM CLR 17/09 A2995 RMK AO2 SLP147 T01670094 PNO
Loading
Personal Weather Stations






























Interactive Weather Map
Tropical Storm Tracking
New forecast layout! Learn more

10-Day Weather Forecast

Advertisements
Track Severe Weather on mobile